Time;durP1;ratioP1;P1;durP2;ratioP2;P2;SDS_P1;SDS_P2;PMS_P1;PMS_P2;Temp;Humidity;BMP_temperature;BMP_pressure;BME280_temperature;BME280_humidity;BME280_pressure;Samples;Min_cycle;Max_cycle;Signal;HPM_P1;HPM_P2
2023/01/26 00:00:47;;;;;;;42.25;25.20;;;;;;;;;;5006843;28;20030;-45
2023/01/26 00:03:13;;;;;;;37.50;22.73;;;;;;;;;;5004051;28;20114;-45
2023/01/26 00:05:39;;;;;;;40.17;24.80;;;;;;;;;;5003195;28;20067;-44
2023/01/26 00:08:04;;;;;;;36.85;22.42;;;;;;;;;;5005530;28;20046;-43
2023/01/26 00:10:30;;;;;;;31.63;19.75;;;;;;;;;;5006810;28;20426;-46
2023/01/26 00:12:56;;;;;;;30.20;18.63;;;;;;;;;;5004208;28;20054;-43
2023/01/26 00:15:21;;;;;;;33.65;19.10;;;;;;;;;;5006451;28;20104;-46
2023/01/26 00:17:47;;;;;;;36.90;22.67;;;;;;;;;;5005581;28;20054;-46
2023/01/26 00:20:12;;;;;;;39.30;23.13;;;;;;;;;;5005591;28;20382;-43
2023/01/26 00:22:37;;;;;;;38.28;22.95;;;;;;;;;;5005250;28;20108;-42
2023/01/26 00:25:03;;;;;;;32.03;19.58;;;;;;;;;;5006780;28;20041;-42
2023/01/26 00:27:28;;;;;;;31.35;18.73;;;;;;;;;;5004458;28;20048;-43
2023/01/26 00:29:54;;;;;;;31.13;19.73;;;;;;;;;;5005522;28;20498;-41
2023/01/26 00:32:19;;;;;;;28.45;17.42;;;;;;;;;;5004432;28;20037;-40
2023/01/26 00:34:44;;;;;;;29.88;18.08;;;;;;;;;;5006200;28;20049;-45
2023/01/26 00:37:10;;;;;;;34.63;19.00;;;;;;;;;;5004410;28;20033;-41
2023/01/26 00:39:35;;;;;;;31.58;17.05;;;;;;;;;;5004681;28;20132;-43
2023/01/26 00:42:10;;;;;;;35.42;20.52;;;;;;;;;;5006742;28;20438;-41
2023/01/26 00:44:40;;;;;;;35.22;20.95;;;;;;;;;;5005728;28;20038;-41
2023/01/26 00:47:07;;;;;;;36.58;22.10;;;;;;;;;;5002118;28;20053;-43
2023/01/26 00:49:33;;;;;;;37.22;21.10;;;;;;;;;;5003598;28;20044;-45
2023/01/26 00:51:59;;;;;;;38.53;21.52;;;;;;;;;;5005811;28;20074;-44
2023/01/26 00:54:24;;;;;;;34.38;19.10;;;;;;;;;;5005439;28;20487;-43
2023/01/26 00:56:50;;;;;;;33.45;20.80;;;;;;;;;;5004207;28;20333;-44
2023/01/26 00:59:15;;;;;;;31.63;20.33;;;;;;;;;;5002410;28;20050;-47
2023/01/26 01:01:40;;;;;;;40.92;21.33;;;;;;;;;;5008133;28;20030;-45
2023/01/26 01:04:06;;;;;;;31.55;19.88;;;;;;;;;;5010635;28;20145;-42
2023/01/26 01:06:31;;;;;;;33.90;19.52;;;;;;;;;;5006594;28;20026;-42
2023/01/26 01:08:57;;;;;;;38.65;21.65;;;;;;;;;;5008711;28;20486;-42
2023/01/26 01:11:22;;;;;;;33.67;20.75;;;;;;;;;;5008875;28;20041;-45
2023/01/26 01:13:47;;;;;;;35.35;20.92;;;;;;;;;;5006739;28;20095;-46
2023/01/26 01:16:15;;;;;;;34.65;20.55;;;;;;;;;;5009394;28;20078;-43
2023/01/26 01:18:41;;;;;;;36.80;19.75;;;;;;;;;;5009215;28;20038;-42
2023/01/26 01:21:11;;;;;;;36.50;20.48;;;;;;;;;;5007803;28;20048;-48
2023/01/26 01:23:37;;;;;;;39.35;19.75;;;;;;;;;;5006424;28;20546;-42
2023/01/26 01:26:04;;;;;;;29.17;19.17;;;;;;;;;;5008047;28;20030;-47
2023/01/26 01:28:31;;;;;;;34.90;19.98;;;;;;;;;;5009668;28;20621;-43
2023/01/26 01:30:56;;;;;;;35.15;20.38;;;;;;;;;;5005343;28;20104;-43
2023/01/26 01:33:22;;;;;;;36.92;19.88;;;;;;;;;;5008203;28;20050;-44
2023/01/26 01:36:03;;;;;;;31.83;19.08;;;;;;;;;;5009627;28;20072;-42
2023/01/26 01:38:29;;;;;;;36.05;19.05;;;;;;;;;;5007690;28;20081;-46
2023/01/26 01:40:55;;;;;;;33.00;20.08;;;;;;;;;;5010293;28;21407;-41
2023/01/26 01:43:22;;;;;;;32.45;18.45;;;;;;;;;;5007296;28;20446;-45
2023/01/26 01:45:49;;;;;;;31.15;19.40;;;;;;;;;;5008925;28;20037;-43
2023/01/26 01:49:01;;;;;;;32.00;18.63;;;;;;;;;;5006292;28;20053;-42
2023/01/26 01:51:32;;;;;;;27.75;18.40;;;;;;;;;;4967374;28;20595;-44
2023/01/26 01:54:03;;;;;;;31.75;18.98;;;;;;;;;;4967269;28;20062;-44
2023/01/26 01:56:31;;;;;;;28.83;16.70;;;;;;;;;;4965386;28;20388;-43
2023/01/26 01:58:58;;;;;;;32.55;18.92;;;;;;;;;;4969485;28;20504;-44
2023/01/26 02:01:24;;;;;;;29.30;16.75;;;;;;;;;;4966398;28;20062;-44
2023/01/26 02:03:52;;;;;;;27.88;18.02;;;;;;;;;;4968978;28;20066;-43
2023/01/26 02:06:26;;;;;;;32.13;17.90;;;;;;;;;;4969052;28;20035;-42
2023/01/26 02:08:53;;;;;;;33.20;18.85;;;;;;;;;;4963927;28;20055;-42
2023/01/26 02:11:27;;;;;;;31.90;20.25;;;;;;;;;;4967027;28;20078;-45
2023/01/26 02:13:53;;;;;;;32.90;18.75;;;;;;;;;;4965953;28;20069;-42
2023/01/26 02:16:18;;;;;;;30.98;18.58;;;;;;;;;;4963487;28;20043;-45
2023/01/26 02:18:45;;;;;;;34.10;19.33;;;;;;;;;;4965715;28;20526;-43
2023/01/26 02:21:15;;;;;;;32.08;18.70;;;;;;;;;;4968681;28;20050;-45
2023/01/26 02:23:47;;;;;;;28.38;17.60;;;;;;;;;;4965836;28;20043;-42
2023/01/26 02:26:17;;;;;;;28.20;17.60;;;;;;;;;;4963847;28;20063;-42
2023/01/26 02:28:44;;;;;;;31.33;18.02;;;;;;;;;;4997740;28;20508;-45
2023/01/26 02:31:11;;;;;;;30.48;18.27;;;;;;;;;;5007183;28;20040;-42
2023/01/26 02:33:37;;;;;;;34.13;19.15;;;;;;;;;;5004512;28;20512;-45
2023/01/26 02:36:03;;;;;;;37.67;19.67;;;;;;;;;;5008388;28;20077;-42
2023/01/26 02:38:36;;;;;;;35.63;20.02;;;;;;;;;;5006628;28;20104;-42
2023/01/26 02:41:08;;;;;;;32.05;19.48;;;;;;;;;;5008219;28;20061;-44
2023/01/26 02:43:34;;;;;;;32.53;18.55;;;;;;;;;;5004291;28;20077;-43
2023/01/26 02:45:59;;;;;;;34.40;19.05;;;;;;;;;;5008196;28;20033;-45
2023/01/26 02:51:09;;;;;;;37.67;20.05;;;;;;;;;;5010739;28;20073;-46
2023/01/26 02:53:35;;;;;;;35.47;18.98;;;;;;;;;;5008166;28;20495;-44
2023/01/26 02:56:00;;;;;;;49.47;23.88;;;;;;;;;;5008378;28;20084;-44
2023/01/26 02:58:25;;;;;;;39.70;20.85;;;;;;;;;;5006655;28;20047;-45
2023/01/26 03:00:51;;;;;;;33.65;20.50;;;;;;;;;;5007418;28;20045;-44
2023/01/26 03:03:25;;;;;;;32.80;19.63;;;;;;;;;;5005483;28;20111;-42
2023/01/26 03:05:51;;;;;;;32.95;19.23;;;;;;;;;;5003875;28;20415;-43
2023/01/26 03:08:17;;;;;;;33.97;20.52;;;;;;;;;;5005389;28;20717;-44
2023/01/26 03:10:43;;;;;;;35.78;20.10;;;;;;;;;;5006531;28;20032;-43
2023/01/26 03:13:08;;;;;;;39.35;20.67;;;;;;;;;;5003247;28;20124;-45
2023/01/26 03:15:41;;;;;;;33.85;19.10;;;;;;;;;;5005931;28;20033;-42
2023/01/26 03:29:13;;;;;;;42.75;22.77;;;;;;;;;;4924032;29;20087;-42
2023/01/26 03:31:38;;;;;;;42.80;23.73;;;;;;;;;;4927880;29;20085;-44
2023/01/26 03:34:03;;;;;;;44.60;22.85;;;;;;;;;;4925765;29;20049;-45
2023/01/26 03:36:29;;;;;;;38.90;22.92;;;;;;;;;;4927373;29;20603;-48
2023/01/26 03:38:54;;;;;;;39.40;18.67;;;;;;;;;;4923985;29;20048;-46
2023/01/26 03:57:44;;;;;;;33.58;18.00;;;;;;;;;;4922582;29;20067;-46
2023/01/26 04:00:10;;;;;;;31.58;17.90;;;;;;;;;;4926208;29;20032;-44
2023/01/26 04:08:21;;;;;;;39.50;21.77;;;;;;;;;;5006082;28;20568;-43
2023/01/26 04:10:49;;;;;;;45.63;22.02;;;;;;;;;;5005769;28;20022;-44
2023/01/26 04:21:31;;;;;;;33.30;19.10;;;;;;;;;;5004570;28;20088;-44
2023/01/26 04:23:57;;;;;;;35.60;18.73;;;;;;;;;;5006103;28;20165;-46
2023/01/26 04:26:24;;;;;;;33.47;18.85;;;;;;;;;;5005983;28;20473;-44
2023/01/26 04:28:50;;;;;;;37.45;20.13;;;;;;;;;;5003076;28;20046;-46
2023/01/26 04:31:15;;;;;;;35.88;19.63;;;;;;;;;;5004819;28;20088;-46
2023/01/26 04:33:42;;;;;;;30.38;17.73;;;;;;;;;;5004123;28;20037;-43
2023/01/26 04:36:08;;;;;;;34.67;17.88;;;;;;;;;;5006215;28;20103;-46
2023/01/26 04:38:34;;;;;;;32.47;18.27;;;;;;;;;;5003980;28;20044;-45
2023/01/26 04:41:00;;;;;;;27.77;16.38;;;;;;;;;;5006548;28;20382;-44
2023/01/26 04:43:25;;;;;;;21.70;13.98;;;;;;;;;;5005215;28;20054;-46
2023/01/26 04:46:02;;;;;;;29.15;16.02;;;;;;;;;;5006520;28;20029;-45
2023/01/26 04:48:28;;;;;;;25.25;15.50;;;;;;;;;;5004844;28;20124;-47
2023/01/26 04:51:00;;;;;;;27.35;15.57;;;;;;;;;;5004765;28;20527;-46
2023/01/26 04:53:25;;;;;;;28.50;15.87;;;;;;;;;;5004393;28;20057;-47
2023/01/26 04:55:51;;;;;;;36.78;18.08;;;;;;;;;;5004644;28;20538;-43
2023/01/26 04:58:17;;;;;;;25.63;15.57;;;;;;;;;;5003926;28;20041;-46
2023/01/26 05:00:42;;;;;;;23.90;13.88;;;;;;;;;;5004746;28;20030;-44
2023/01/26 05:03:08;;;;;;;29.77;15.73;;;;;;;;;;5005252;28;20037;-45
2023/01/26 05:05:37;;;;;;;30.23;15.93;;;;;;;;;;5004347;28;20026;-46
2023/01/26 05:08:04;;;;;;;24.52;14.93;;;;;;;;;;4997619;28;20446;-48
2023/01/26 05:10:30;;;;;;;32.72;19.38;;;;;;;;;;5008765;28;20080;-43
2023/01/26 05:12:55;;;;;;;25.95;16.58;;;;;;;;;;5005220;28;20046;-43
2023/01/26 05:15:21;;;;;;;28.27;17.17;;;;;;;;;;5005309;28;20034;-46
2023/01/26 05:17:46;;;;;;;25.35;16.77;;;;;;;;;;5003046;28;20047;-47
2023/01/26 05:20:12;;;;;;;29.73;16.92;;;;;;;;;;5006393;28;20041;-43
2023/01/26 05:22:38;;;;;;;30.77;17.73;;;;;;;;;;5002979;28;20042;-44
2023/01/26 05:25:03;;;;;;;27.27;15.60;;;;;;;;;;5003396;28;20080;-45
2023/01/26 05:27:29;;;;;;;28.95;16.65;;;;;;;;;;5001654;28;20101;-44
2023/01/26 05:29:59;;;;;;;30.60;17.58;;;;;;;;;;5007011;28;20483;-45
2023/01/26 05:32:28;;;;;;;25.80;15.75;;;;;;;;;;5004117;28;20037;-44
2023/01/26 05:34:54;;;;;;;31.30;16.20;;;;;;;;;;5008421;28;20085;-43
2023/01/26 05:37:19;;;;;;;27.08;16.45;;;;;;;;;;5003346;28;20045;-44
2023/01/26 05:39:45;;;;;;;28.25;17.10;;;;;;;;;;5007014;28;20030;-46
2023/01/26 05:42:11;;;;;;;32.95;17.70;;;;;;;;;;5003314;28;20095;-43
2023/01/26 05:44:37;;;;;;;41.55;26.02;;;;;;;;;;5004129;28;20077;-43
2023/01/26 05:47:02;;;;;;;46.47;26.67;;;;;;;;;;5009430;28;20049;-45
2023/01/26 05:49:28;;;;;;;37.78;21.38;;;;;;;;;;5010896;28;20115;-43
2023/01/26 05:51:53;;;;;;;33.15;16.58;;;;;;;;;;5007374;28;20088;-43
2023/01/26 05:54:19;;;;;;;26.20;16.85;;;;;;;;;;5006478;28;20046;-45
2023/01/26 05:56:44;;;;;;;25.90;16.23;;;;;;;;;;5008370;28;20033;-44
2023/01/26 05:59:09;;;;;;;27.05;15.93;;;;;;;;;;5007884;28;20030;-44
2023/01/26 06:01:35;;;;;;;25.92;15.80;;;;;;;;;;5007902;28;20120;-44
2023/01/26 06:04:00;;;;;;;26.02;15.80;;;;;;;;;;5009594;28;20053;-44
2023/01/26 06:06:26;;;;;;;29.95;15.80;;;;;;;;;;5005957;28;20034;-46
2023/01/26 06:08:51;;;;;;;25.98;15.68;;;;;;;;;;5008318;28;20042;-44
2023/01/26 06:11:17;;;;;;;30.63;15.77;;;;;;;;;;5006288;28;20438;-47
2023/01/26 06:13:42;;;;;;;31.75;16.35;;;;;;;;;;5009266;28;20041;-44
2023/01/26 06:16:07;;;;;;;30.13;17.52;;;;;;;;;;5007454;28;20042;-49
2023/01/26 06:18:33;;;;;;;32.58;16.15;;;;;;;;;;5009321;28;20042;-46
2023/01/26 06:21:02;;;;;;;29.20;15.85;;;;;;;;;;5007755;28;20026;-44
2023/01/26 06:23:27;;;;;;;30.05;16.63;;;;;;;;;;5005520;28;20065;-47
2023/01/26 06:25:58;;;;;;;29.77;16.95;;;;;;;;;;5010690;28;20582;-47
2023/01/26 06:28:23;;;;;;;35.15;19.45;;;;;;;;;;5008218;28;20069;-45
2023/01/26 06:30:48;;;;;;;36.95;18.25;;;;;;;;;;5006141;28;20135;-47
2023/01/26 06:33:14;;;;;;;27.35;14.80;;;;;;;;;;5007924;28;20064;-47
2023/01/26 06:35:39;;;;;;;31.60;15.50;;;;;;;;;;5008378;28;20030;-48
2023/01/26 06:38:04;;;;;;;25.77;16.33;;;;;;;;;;5007276;28;20048;-46
2023/01/26 06:40:30;;;;;;;34.22;17.95;;;;;;;;;;5007069;28;20111;-44
2023/01/26 06:42:55;;;;;;;37.60;17.88;;;;;;;;;;5006489;28;20056;-45
2023/01/26 06:45:20;;;;;;;30.08;17.55;;;;;;;;;;5007860;28;20085;-46
2023/01/26 06:47:47;;;;;;;34.90;20.50;;;;;;;;;;5007878;28;20064;-47
2023/01/26 06:50:19;;;;;;;34.80;20.30;;;;;;;;;;5007892;28;20030;-46
2023/01/26 06:52:49;;;;;;;31.63;18.70;;;;;;;;;;5008453;28;20069;-44
2023/01/26 06:55:28;;;;;;;37.08;20.58;;;;;;;;;;5007506;28;20372;-44
2023/01/26 06:57:54;;;;;;;32.08;18.75;;;;;;;;;;5003788;28;20046;-44
2023/01/26 07:00:20;;;;;;;22.88;15.48;;;;;;;;;;5005917;28;20026;-46
2023/01/26 07:02:45;;;;;;;27.38;17.30;;;;;;;;;;5003456;28;20498;-47
2023/01/26 07:05:10;;;;;;;29.45;17.73;;;;;;;;;;5006202;28;20033;-46
2023/01/26 07:07:36;;;;;;;28.65;16.73;;;;;;;;;;5003585;28;20835;-45
2023/01/26 07:10:05;;;;;;;35.13;17.13;;;;;;;;;;5004780;28;20108;-49
2023/01/26 07:12:42;;;;;;;27.30;15.52;;;;;;;;;;5006714;28;20047;-44
2023/01/26 07:15:08;;;;;;;30.70;17.80;;;;;;;;;;5004937;28;20026;-45
2023/01/26 07:17:34;;;;;;;35.17;18.35;;;;;;;;;;5005111;28;20049;-47
2023/01/26 07:19:59;;;;;;;45.83;25.42;;;;;;;;;;5011194;28;20075;-47
2023/01/26 07:22:24;;;;;;;66.47;33.95;;;;;;;;;;5006712;28;20085;-45
2023/01/26 07:24:50;;;;;;;105.25;43.03;;;;;;;;;;5005329;28;20030;-47
2023/01/26 07:27:15;;;;;;;106.28;46.05;;;;;;;;;;5004722;28;20022;-46
2023/01/26 07:29:40;;;;;;;88.93;40.78;;;;;;;;;;5007504;28;20049;-45
2023/01/26 07:32:06;;;;;;;55.90;27.85;;;;;;;;;;5004348;28;20125;-47
2023/01/26 07:34:32;;;;;;;36.28;19.95;;;;;;;;;;5005718;28;20038;-48
2023/01/26 07:36:57;;;;;;;34.03;17.83;;;;;;;;;;5007557;28;20554;-49
2023/01/26 07:39:23;;;;;;;30.70;17.25;;;;;;;;;;5010153;28;20171;-51
2023/01/26 07:41:49;;;;;;;30.70;16.85;;;;;;;;;;5038275;28;20036;-50
2023/01/26 07:44:14;;;;;;;31.27;18.27;;;;;;;;;;5005059;28;20046;-44
2023/01/26 07:46:40;;;;;;;27.88;16.58;;;;;;;;;;5005296;28;20084;-47
2023/01/26 07:49:06;;;;;;;29.27;18.52;;;;;;;;;;5003626;28;20066;-47
2023/01/26 07:51:32;;;;;;;32.97;18.90;;;;;;;;;;5005926;28;20033;-45
2023/01/26 07:53:58;;;;;;;32.50;18.13;;;;;;;;;;5006617;28;20121;-50
2023/01/26 07:56:23;;;;;;;30.25;18.50;;;;;;;;;;5007163;28;20029;-44
2023/01/26 07:58:53;;;;;;;36.00;18.30;;;;;;;;;;5004583;28;20045;-46
2023/01/26 08:01:18;;;;;;;30.15;17.67;;;;;;;;;;5006624;28;20065;-47
2023/01/26 08:03:44;;;;;;;30.50;17.42;;;;;;;;;;5005649;28;20060;-44
2023/01/26 08:06:11;;;;;;;30.48;17.20;;;;;;;;;;5037519;28;20105;-45
2023/01/26 08:08:39;;;;;;;31.70;16.77;;;;;;;;;;5003147;28;20108;-47
2023/01/26 08:11:04;;;;;;;31.70;18.13;;;;;;;;;;5004319;28;20419;-51
2023/01/26 08:13:30;;;;;;;28.52;17.70;;;;;;;;;;5020655;28;20128;-45
2023/01/26 08:16:08;;;;;;;32.22;18.10;;;;;;;;;;5006259;28;20049;-50
2023/01/26 08:18:33;;;;;;;29.65;17.77;;;;;;;;;;5004598;28;20115;-48
2023/01/26 08:20:59;;;;;;;29.70;18.10;;;;;;;;;;5006179;28;20088;-47
2023/01/26 08:23:24;;;;;;;26.60;16.73;;;;;;;;;;5037572;28;20057;-44
2023/01/26 08:25:50;;;;;;;27.40;16.33;;;;;;;;;;5006439;28;20037;-45
2023/01/26 08:28:15;;;;;;;26.17;17.25;;;;;;;;;;5004551;28;20057;-46
2023/01/26 08:30:41;;;;;;;29.92;18.38;;;;;;;;;;5004881;28;20060;-49
2023/01/26 08:33:06;;;;;;;26.83;17.55;;;;;;;;;;5003917;28;20049;-49
2023/01/26 08:35:32;;;;;;;29.27;18.08;;;;;;;;;;5004207;28;20033;-46
2023/01/26 08:37:58;;;;;;;25.27;16.27;;;;;;;;;;5000742;28;20087;-49
2023/01/26 08:40:23;;;;;;;29.58;17.30;;;;;;;;;;5001499;28;20030;-45
2023/01/26 08:42:50;;;;;;;34.35;18.85;;;;;;;;;;5001403;28;20601;-47
2023/01/26 08:45:15;;;;;;;30.63;19.25;;;;;;;;;;5003670;28;20026;-43
2023/01/26 08:47:40;;;;;;;29.55;18.48;;;;;;;;;;5004195;28;20525;-45
2023/01/26 08:50:07;;;;;;;31.25;18.23;;;;;;;;;;5002739;28;20034;-45
2023/01/26 08:52:32;;;;;;;30.55;18.73;;;;;;;;;;5002284;28;20061;-47
2023/01/26 08:54:59;;;;;;;30.48;19.73;;;;;;;;;;5001596;28;20127;-46
2023/01/26 08:57:24;;;;;;;40.97;23.63;;;;;;;;;;5003237;28;20073;-44
2023/01/26 08:59:49;;;;;;;53.85;26.63;;;;;;;;;;5000425;28;20490;-41
2023/01/26 09:02:15;;;;;;;36.92;19.67;;;;;;;;;;4998770;28;20034;-46
2023/01/26 09:04:40;;;;;;;47.20;24.65;;;;;;;;;;5002938;28;20113;-47
2023/01/26 09:07:05;;;;;;;61.60;25.73;;;;;;;;;;5005240;28;20029;-46
2023/01/26 09:09:31;;;;;;;35.38;19.33;;;;;;;;;;5006596;28;20033;-47
2023/01/26 09:11:56;;;;;;;38.75;21.45;;;;;;;;;;5006603;28;20037;-47
2023/01/26 09:14:22;;;;;;;29.98;17.95;;;;;;;;;;5004096;28;20413;-47
2023/01/26 09:16:49;;;;;;;45.33;20.40;;;;;;;;;;5001211;28;20034;-45
2023/01/26 09:19:14;;;;;;;54.80;21.38;;;;;;;;;;5001718;28;20052;-47
2023/01/26 09:21:39;;;;;;;31.13;18.35;;;;;;;;;;5006161;28;20475;-47
2023/01/26 09:24:05;;;;;;;44.30;20.27;;;;;;;;;;5006100;28;20376;-45
2023/01/26 09:26:31;;;;;;;26.50;16.95;;;;;;;;;;5005761;28;20061;-44
2023/01/26 09:28:56;;;;;;;50.08;22.65;;;;;;;;;;5009022;28;20116;-49
2023/01/26 09:31:21;;;;;;;40.08;20.70;;;;;;;;;;5004537;28;20046;-45
2023/01/26 09:33:48;;;;;;;33.72;18.35;;;;;;;;;;5005251;28;20376;-47
2023/01/26 09:36:13;;;;;;;34.08;17.35;;;;;;;;;;5007685;28;20029;-44
2023/01/26 09:38:39;;;;;;;24.05;16.08;;;;;;;;;;5007309;28;20108;-45
2023/01/26 09:41:20;;;;;;;43.40;20.58;;;;;;;;;;5004777;28;20044;-47
2023/01/26 09:43:55;;;;;;;35.78;18.75;;;;;;;;;;5007656;28;20058;-45
2023/01/26 09:46:48;;;;;;;26.90;16.45;;;;;;;;;;5006467;28;20113;-44
2023/01/26 09:49:19;;;;;;;24.95;15.98;;;;;;;;;;4985160;28;20058;-44
2023/01/26 09:51:50;;;;;;;21.70;15.00;;;;;;;;;;4984143;28;20546;-46
2023/01/26 09:54:16;;;;;;;23.98;14.85;;;;;;;;;;4986453;28;20452;-46
2023/01/26 09:56:41;;;;;;;22.48;14.85;;;;;;;;;;4984771;28;20037;-45
2023/01/26 09:59:20;;;;;;;22.45;15.27;;;;;;;;;;4985536;28;20522;-44
2023/01/26 10:01:56;;;;;;;25.77;16.02;;;;;;;;;;4986444;28;20113;-44
2023/01/26 10:04:32;;;;;;;22.38;15.32;;;;;;;;;;4986927;28;20050;-44
2023/01/26 10:07:00;;;;;;;29.65;17.17;;;;;;;;;;4985066;28;20510;-46
2023/01/26 10:09:31;;;;;;;17.70;12.68;;;;;;;;;;4984599;28;20070;-44
2023/01/26 10:12:03;;;;;;;18.35;13.50;;;;;;;;;;4980436;28;20042;-43
2023/01/26 10:14:45;;;;;;;17.48;12.50;;;;;;;;;;4981556;28;20050;-43
2023/01/26 10:17:40;;;;;;;24.15;12.73;;;;;;;;;;4984928;28;20041;-43
2023/01/26 10:20:14;;;;;;;16.13;11.82;;;;;;;;;;4983995;28;20045;-45
2023/01/26 10:22:55;;;;;;;22.05;13.10;;;;;;;;;;4978327;28;20038;-43
2023/01/26 10:25:32;;;;;;;17.50;12.15;;;;;;;;;;4988164;28;20562;-48
2023/01/26 10:27:57;;;;;;;20.02;12.60;;;;;;;;;;5002349;28;20089;-46
2023/01/26 10:30:23;;;;;;;16.00;10.88;;;;;;;;;;5005776;28;20446;-45
2023/01/26 10:32:51;;;;;;;26.98;15.18;;;;;;;;;;5001497;28;20514;-48
2023/01/26 10:35:24;;;;;;;22.27;13.02;;;;;;;;;;5007391;28;20014;-43
2023/01/26 10:37:51;;;;;;;17.00;11.63;;;;;;;;;;5009636;28;20052;-44
2023/01/26 10:40:18;;;;;;;19.17;11.80;;;;;;;;;;5000082;28;20474;-45
2023/01/26 10:42:55;;;;;;;16.92;12.05;;;;;;;;;;5005554;28;20141;-43
2023/01/26 10:45:31;;;;;;;19.65;11.63;;;;;;;;;;5004171;28;20032;-49
2023/01/26 10:48:05;;;;;;;17.67;11.27;;;;;;;;;;5003040;28;20042;-45
2023/01/26 10:50:31;;;;;;;18.13;12.43;;;;;;;;;;5002376;28;20030;-50
2023/01/26 10:52:59;;;;;;;21.30;11.43;;;;;;;;;;5006398;28;20042;-51
2023/01/26 10:55:26;;;;;;;18.42;11.77;;;;;;;;;;5005812;28;20579;-45
2023/01/26 10:57:51;;;;;;;16.67;11.48;;;;;;;;;;5001831;28;20136;-45
2023/01/26 11:00:28;;;;;;;14.32;10.15;;;;;;;;;;5004300;28;20163;-45
2023/01/26 11:02:58;;;;;;;21.92;11.57;;;;;;;;;;5006990;28;20080;-47
2023/01/26 11:05:26;;;;;;;16.67;11.55;;;;;;;;;;5005035;28;20110;-44
2023/01/26 11:07:57;;;;;;;15.52;11.02;;;;;;;;;;5004455;28;20041;-44
2023/01/26 11:10:26;;;;;;;16.75;11.20;;;;;;;;;;5006164;28;20071;-44
2023/01/26 11:13:18;;;;;;;20.40;11.07;;;;;;;;;;5002519;28;20045;-45
2023/01/26 11:15:48;;;;;;;;;;;;;;;;;;5002391;28;20026;-44
2023/01/26 11:18:22;;;;;;;16.52;10.48;;;;;;;;;;5004753;28;20341;-44
2023/01/26 11:21:10;;;;;;;17.80;11.20;;;;;;;;;;5002953;28;20026;-46
2023/01/26 11:24:19;;;;;;;23.35;11.63;;;;;;;;;;5003011;28;20053;-44
2023/01/26 11:27:09;;;;;;;18.83;11.73;;;;;;;;;;4935438;29;20039;-45
2023/01/26 11:29:53;;;;;;;21.52;13.60;;;;;;;;;;4932406;29;20123;-45
2023/01/26 11:32:24;;;;;;;14.10;10.63;;;;;;;;;;4927033;29;20195;-47
2023/01/26 11:35:01;;;;;;;15.77;11.90;;;;;;;;;;4929048;29;20380;-45
2023/01/26 11:37:44;;;;;;;14.80;11.30;;;;;;;;;;4930945;29;20188;-44
2023/01/26 11:40:29;;;;;;;15.88;12.02;;;;;;;;;;4914892;29;20056;-45
2023/01/26 11:43:07;;;;;;;15.50;11.32;;;;;;;;;;4931329;29;20047;-44
2023/01/26 11:45:47;;;;;;;21.75;13.90;;;;;;;;;;4927375;28;20051;-45
2023/01/26 11:48:33;;;;;;;20.83;11.43;;;;;;;;;;4927362;29;20131;-47
2023/01/26 11:51:29;;;;;;;21.73;11.85;;;;;;;;;;4924884;29;20615;-44
2023/01/26 11:54:24;;;;;;;16.50;11.18;;;;;;;;;;4929622;29;20043;-45
2023/01/26 11:56:58;;;;;;;18.25;12.38;;;;;;;;;;4922906;28;20133;-49
2023/01/26 11:59:33;;;;;;;23.02;15.45;;;;;;;;;;4965040;28;20113;-44
2023/01/26 12:02:22;;;;;;;24.67;11.27;;;;;;;;;;4966415;28;20045;-45
2023/01/26 12:04:48;;;;;;;15.02;11.10;;;;;;;;;;4963955;28;20047;-45
2023/01/26 12:07:50;;;;;;;15.07;10.20;;;;;;;;;;4946928;28;20105;-44
2023/01/26 12:10:19;;;;;;;15.02;10.40;;;;;;;;;;4961044;28;20116;-44
2023/01/26 12:12:54;;;;;;;13.82;9.48;;;;;;;;;;4963639;28;20590;-44
2023/01/26 12:15:41;;;;;;;15.88;10.00;;;;;;;;;;4964433;28;20035;-44
2023/01/26 12:18:07;;;;;;;13.70;8.82;;;;;;;;;;4963070;28;20411;-46
2023/01/26 12:20:49;;;;;;;14.18;9.55;;;;;;;;;;4963591;28;20030;-47
2023/01/26 12:23:26;;;;;;;13.60;9.57;;;;;;;;;;4962305;28;20051;-46
2023/01/26 12:26:12;;;;;;;16.48;9.23;;;;;;;;;;4963080;28;20496;-45
2023/01/26 12:28:44;;;;;;;12.73;9.38;;;;;;;;;;4977548;28;20043;-46
2023/01/26 12:31:21;;;;;;;12.07;9.20;;;;;;;;;;4962894;28;20043;-48
2023/01/26 12:33:51;;;;;;;17.40;11.25;;;;;;;;;;4993101;28;19965;-44
2023/01/26 12:36:31;;;;;;;12.40;9.88;;;;;;;;;;5001189;28;20417;-43
2023/01/26 12:39:03;;;;;;;11.65;8.88;;;;;;;;;;5001370;28;20049;-46
2023/01/26 12:41:41;;;;;;;12.85;8.50;;;;;;;;;;5002836;28;20030;-45
2023/01/26 12:44:30;;;;;;;12.32;9.45;;;;;;;;;;5002245;28;20044;-46
2023/01/26 12:47:33;;;;;;;11.05;8.68;;;;;;;;;;5001662;28;20541;-44
2023/01/26 12:49:58;;;;;;;18.30;10.27;;;;;;;;;;5005715;28;20041;-46
2023/01/26 12:52:49;;;;;;;17.05;10.75;;;;;;;;;;5001936;28;20033;-44
2023/01/26 12:55:28;;;;;;;12.90;8.95;;;;;;;;;;4999300;28;20070;-43
2023/01/26 12:57:58;;;;;;;12.15;8.75;;;;;;;;;;5000942;28;20057;-45
2023/01/26 13:00:36;;;;;;;13.80;8.90;;;;;;;;;;5003258;28;20451;-43
2023/01/26 13:03:13;;;;;;;16.08;9.60;;;;;;;;;;5002450;28;20142;-45
2023/01/26 13:05:53;;;;;;;14.60;9.05;;;;;;;;;;5005445;28;20049;-46
2023/01/26 13:08:31;;;;;;;14.07;9.45;;;;;;;;;;5005975;28;20022;-47
2023/01/26 13:11:40;;;;;;;12.85;9.48;;;;;;;;;;5003726;28;20029;-44
2023/01/26 13:14:35;;;;;;;12.43;8.75;;;;;;;;;;4999056;28;20132;-46
2023/01/26 13:17:15;;;;;;;11.68;9.60;;;;;;;;;;5002580;28;20041;-47
2023/01/26 13:19:40;;;;;;;14.52;9.55;;;;;;;;;;5000912;28;20144;-44
2023/01/26 13:22:26;;;;;;;12.88;9.00;;;;;;;;;;5005434;28;20081;-44
2023/01/26 13:24:54;;;;;;;12.50;9.07;;;;;;;;;;4976460;28;20054;-47
2023/01/26 13:27:38;;;;;;;12.45;9.32;;;;;;;;;;5004716;28;20042;-45
2023/01/26 13:30:29;;;;;;;13.20;9.43;;;;;;;;;;5010446;28;20149;-44
2023/01/26 13:33:09;;;;;;;12.45;8.80;;;;;;;;;;4990692;28;20073;-45
2023/01/26 13:35:35;;;;;;;12.05;8.50;;;;;;;;;;4999549;28;20046;-46
2023/01/26 13:38:10;;;;;;;12.40;9.07;;;;;;;;;;5005216;28;20100;-44
2023/01/26 13:40:40;;;;;;;13.05;8.75;;;;;;;;;;5005863;28;20137;-45
2023/01/26 13:43:34;;;;;;;10.55;8.82;;;;;;;;;;5008413;28;20033;-50
2023/01/26 13:46:07;;;;;;;16.90;9.50;;;;;;;;;;5002020;28;20041;-44
2023/01/26 13:48:38;;;;;;;11.90;8.80;;;;;;;;;;5004613;28;20634;-44
2023/01/26 13:51:06;;;;;;;13.40;9.35;;;;;;;;;;5012338;28;20034;-44
2023/01/26 13:53:53;;;;;;;13.13;9.20;;;;;;;;;;5002400;28;20053;-44
2023/01/26 13:56:34;;;;;;;14.88;9.15;;;;;;;;;;5001815;28;20042;-44
2023/01/26 13:59:12;;;;;;;12.20;8.48;;;;;;;;;;5000717;28;20038;-43
2023/01/26 14:01:46;;;;;;;16.90;9.50;;;;;;;;;;5000598;28;20038;-44
2023/01/26 14:04:15;;;;;;;13.65;9.20;;;;;;;;;;5003319;28;20057;-43
2023/01/26 14:06:42;;;;;;;11.32;9.25;;;;;;;;;;5002719;28;20121;-44
2023/01/26 14:09:12;;;;;;;16.42;9.98;;;;;;;;;;5021375;28;20033;-44
2023/01/26 14:11:38;;;;;;;13.05;9.20;;;;;;;;;;5006077;28;20083;-44
2023/01/26 14:14:04;;;;;;;12.07;9.20;;;;;;;;;;5006851;28;20037;-44
2023/01/26 14:16:33;;;;;;;16.20;9.75;;;;;;;;;;5006915;28;20080;-44
2023/01/26 14:19:15;;;;;;;14.32;9.80;;;;;;;;;;5010385;28;20038;-47
2023/01/26 14:21:50;;;;;;;12.93;8.55;;;;;;;;;;5000849;28;20117;-46
2023/01/26 14:24:17;;;;;;;13.38;9.02;;;;;;;;;;5004514;28;20069;-46
2023/01/26 14:26:43;;;;;;;14.43;9.80;;;;;;;;;;5006405;28;20032;-47
2023/01/26 14:29:19;;;;;;;15.90;9.77;;;;;;;;;;5005063;28;20049;-47
2023/01/26 14:31:47;;;;;;;13.25;9.57;;;;;;;;;;5002153;28;20042;-43
2023/01/26 14:34:20;;;;;;;16.38;10.38;;;;;;;;;;5002741;28;20034;-49
2023/01/26 14:36:45;;;;;;;13.13;10.52;;;;;;;;;;5003910;28;20025;-46
2023/01/26 14:39:17;;;;;;;13.98;9.63;;;;;;;;;;5007088;28;20380;-47
2023/01/26 14:41:44;;;;;;;15.77;9.88;;;;;;;;;;5006276;28;20104;-46
2023/01/26 14:44:09;;;;;;;18.17;10.55;;;;;;;;;;5005040;28;20419;-47
2023/01/26 14:47:01;;;;;;;15.60;9.35;;;;;;;;;;5006488;28;20018;-44
2023/01/26 14:49:42;;;;;;;15.85;10.00;;;;;;;;;;5005898;28;20137;-44
2023/01/26 14:52:18;;;;;;;15.27;10.55;;;;;;;;;;5005513;28;20501;-47
2023/01/26 14:54:44;;;;;;;16.90;10.73;;;;;;;;;;5002485;28;20052;-45
2023/01/26 14:57:17;;;;;;;17.83;9.77;;;;;;;;;;5004186;28;20029;-43
2023/01/26 14:59:42;;;;;;;15.45;10.20;;;;;;;;;;5005798;28;20042;-47
2023/01/26 15:02:21;;;;;;;14.23;10.05;;;;;;;;;;5005709;28;20026;-46
2023/01/26 15:04:49;;;;;;;14.88;9.88;;;;;;;;;;5004902;28;20049;-45
2023/01/26 15:07:35;;;;;;;15.18;10.38;;;;;;;;;;5005727;28;20101;-44
2023/01/26 15:10:20;;;;;;;14.02;10.90;;;;;;;;;;5004144;28;20029;-46
2023/01/26 15:12:46;;;;;;;19.88;10.43;;;;;;;;;;5003140;28;20048;-47
2023/01/26 15:15:12;;;;;;;12.38;9.52;;;;;;;;;;5003756;28;20034;-45
2023/01/26 15:17:40;;;;;;;17.25;10.55;;;;;;;;;;5003171;28;20084;-48
2023/01/26 15:20:13;;;;;;;19.98;11.18;;;;;;;;;;5005031;28;20036;-47